Monday, December 18, 2017, 5:49 AM EST
Back to Local

KFKL, Franklin, Venango Regional Airport

Location: Franklin, PA, United States Lat: 41.383
Local Time: 5:49 AM EST (10:49 GMT) Lon: -79.867
Time Zone: US/Eastern Elev: 1538 ft

Show me the last for .
Show Decoded

2017-12-18 05:41 METAR KFKL 181041Z AUTO 21006KT 10SM SCT023 OVC032 02/M01 A3003 RMK AO2 FZRANO =
2017-12-18 04:56 METAR KFKL 180956Z AUTO 21008KT 10SM OVC021 02/M01 A3002 RMK AO2 SLP180
                 T00171011 FZRANO =
2017-12-18 03:56 METAR KFKL 180856Z AUTO 22006KT 10SM OVC019 01/M01 A3003 RMK AO2 SLP186
                 T00111006 55009 FZRANO =
2017-12-18 02:56 METAR KFKL 180756Z AUTO 20007KT 10SM OVC021 01/M01 A3003 RMK AO2 SLP186
                 T00111006 FZRANO =
2017-12-18 01:56 METAR KFKL 180656Z AUTO 21005KT 9SM OVC023 01/00 A3004 RMK AO2 SLP187 T00110000
                 FZRANO =
2017-12-18 00:56 METAR KFKL 180556Z AUTO 22008KT 8SM FEW008 BKN015 OVC025 01/00 A3006 RMK AO2
                 SLP196 60001 T00110000 10011 20006 58006 FZRANO =
2017-12-18 00:47 METAR KFKL 180547Z AUTO 22004KT 8SM FEW008 BKN015 OVC025 01/00 A3006 RMK AO2
                 FZRANO =
2017-12-18 00:17 METAR KFKL 180517Z AUTO 21004KT 8SM BKN029 OVC035 01/00 A3007 RMK AO2 FZRANO =
2017-12-17 23:56 METAR KFKL 180456Z AUTO 23005KT 8SM FEW022 BKN037 OVC045 01/00 A3007 RMK AO2
                 SLP201 T00110000 400111072 FZRANO =
2017-12-17 22:56 METAR KFKL 180356Z AUTO 21005KT 6SM BR OVC037 01/M01 A3008 RMK AO2 RAE0259
                 SLP205 P0000 T00061006 FZRANO =
2017-12-17 21:56 METAR KFKL 180256Z AUTO 19004KT 9SM -RA SCT030 BKN043 OVC050 01/M01 A3008 RMK
                 AO2 UPE0157B34E38RAB0157SNB24E34 SLP205 P0001 60001 T00061006 50001 FZRANO =
2017-12-17 21:41 METAR KFKL 180241Z AUTO 19005KT 6SM -RA BR SCT025 OVC030 01/M01 A3008 RMK AO2
                 UPE0157B34E38RAB0157SNB24E34 P0000 FZRANO =
2017-12-17 20:56 METAR KFKL 180156Z AUTO 21007KT 10SM UP BKN026 OVC060 01/M02 A3008 RMK AO2
                 RAB01E15B32E52UPB13E14B52 SLP207 P0000 T00111017 FZRANO =
2017-12-17 19:56 METAR KFKL 180056Z AUTO 19006KT 10SM OVC070 01/M02 A3007 RMK AO2 RAB43E54 SLP205
                 P0000 T00061022 FZRANO =
2017-12-17 18:56 METAR KFKL 172356Z AUTO 19008KT 10SM OVC100 01/M02 A3008 RMK AO2 SLP205
                 T00111022 10011 21011 56009 FZRANO =
2017-12-17 17:56 METAR KFKL 172256Z AUTO 17008KT 10SM SCT075 OVC090 01/M02 A3008 RMK AO2 SLP207
                 T00061022 FZRANO =
2017-12-17 16:56 METAR KFKL 172156Z AUTO 17007KT 10SM OVC085 01/M03 A3010 RMK AO2 SLP213
                 T00061028 FZRANO =
2017-12-17 15:56 METAR KFKL 172056Z AUTO 00000KT 10SM FEW080 OVC100 00/M02 A3011 RMK AO2 SLP215
                 T00001022 55008 FZRANO =
2017-12-17 14:56 METAR KFKL 171956Z AUTO 12004KT 10SM SCT110 00/M02 A3009 RMK AO2 SLP209
                 T00001022 FZRANO =
2017-12-17 13:56 METAR KFKL 171856Z AUTO 10003KT 9SM CLR 00/M01 A3010 RMK AO2 SLP214 T00001011
                 FZRANO =
2017-12-17 12:56 METAR KFKL 171756Z AUTO 00000KT 5SM BR CLR M01/M02 A3013 RMK AO2 SLP224
                 T10111017 11006 21072 58021 FZRANO =
2017-12-17 11:56 METAR KFKL 171656Z AUTO 12003KT 4SM BR CLR M02/M03 A3016 RMK AO2 SLP234
                 T10221033 FZRANO =
2017-12-17 10:56 METAR KFKL 171556Z AUTO 11004KT 4SM BR CLR M03/M04 A3019 RMK AO2 SLP246
                 T10331044 FZRANO =
2017-12-17 09:56 METAR KFKL 171456Z AUTO 00000KT 4SM BR CLR M04/M06 A3020 RMK AO2 SLP247
                 T10441056 53007 FZRANO =
2017-12-17 08:56 METAR KFKL 171356Z AUTO 00000KT 3SM BR CLR M06/M07 A3017 RMK AO2 SLP239
                 T10611072 FZRANO =
2017-12-17 08:52 METAR KFKL 171352Z AUTO 00000KT 3SM BR CLR M06/M07 A3016 RMK AO2 FZRANO =
2017-12-17 08:03 METAR KFKL 171303Z AUTO 07003KT 2SM BR CLR M07/M08 A3017 RMK AO2 FZRANO =
2017-12-17 07:56 METAR KFKL 171256Z AUTO 00000KT 1 3/4SM BR FEW002 M07/M08 A3018 RMK AO2 SLP241
                 T10721083 FZRANO =
2017-12-17 07:54 METAR KFKL 171254Z AUTO 10003KT 1 3/4SM BR FEW002 M07/M08 A3018 RMK AO2 FZRANO =
2017-12-17 07:44 METAR KFKL 171244Z AUTO 07003KT 2SM BR FEW002 M07/M08 A3018 RMK AO2 FZRANO =
2017-12-17 07:30 METAR KFKL 171230Z AUTO 00000KT 1SM BR VV002 M07/M08 A3018 RMK AO2 FZRANO =
2017-12-17 07:23 METAR KFKL 171223Z AUTO 00000KT 2SM BR FEW002 M07/M08 A3018 RMK AO2 VIS 1V4
                 FZRANO =
2017-12-17 06:56 METAR KFKL 171156Z AUTO 00000KT 3SM BR FEW002 M07/M08 A3017 RMK AO2 SLP238
                 T10671078 11039 21067 53013 FZRANO =
2017-12-17 06:53 METAR KFKL 171153Z AUTO 00000KT 2SM BR FEW002 M07/M08 A3017 RMK AO2 FZRANO =
2017-12-17 06:50 METAR KFKL 171150Z AUTO 00000KT 1SM BR VV002 M07/M08 A3017 RMK AO2 FZRANO =
2017-12-17 06:39 METAR KFKL 171139Z AUTO 04003KT 1/2SM FZFG VV002 M07/M08 A3017 RMK AO2 FZRANO =
2017-12-17 06:26 METAR KFKL 171126Z AUTO 00000KT 1/4SM FZFG BKN001 M07/M08 A3017 RMK AO2 FZRANO =
2017-12-17 06:13 METAR KFKL 171113Z AUTO 00000KT 1/4SM FZFG M07/M08 A3016 RMK AO2 FZRANO $ =
2017-12-17 06:10 METAR KFKL 171110Z AUTO 36003KT 3/4SM BR VV001 M07/M08 A3016 RMK AO2 VIS 1/4V4
                 FZRANO =
2017-12-17 06:07 METAR KFKL 171107Z AUTO 35003KT 1 3/4SM BR SCT001 M07/M08 A3016 RMK AO2 VIS
                 1/2V5 FZRANO =

Support USWX by starting your Amazon purchase here.